sensor_id;sensor_type;location;lat;lon;timestamp;pressure;altitude;pressure_sealevel;temperature;humidity
77975;BME280;67164;51.202;0.278;2024-02-23T00:00:17;98429.83;;;22.88;36.87
77975;BME280;67164;51.202;0.278;2024-02-23T00:02:43;98428.08;;;23.09;36.89
77975;BME280;67164;51.202;0.278;2024-02-23T00:05:09;98429.15;;;22.78;36.91
77975;BME280;67164;51.202;0.278;2024-02-23T00:07:34;98430.23;;;22.79;36.83
77975;BME280;67164;51.202;0.278;2024-02-23T00:10:00;98429.34;;;22.97;36.85
77975;BME280;67164;51.202;0.278;2024-02-23T00:12:26;98429.23;;;22.91;36.89
77975;BME280;67164;51.202;0.278;2024-02-23T00:14:52;98426.19;;;23.11;36.96
77975;BME280;67164;51.202;0.278;2024-02-23T00:17:17;98426.41;;;22.80;36.88
77975;BME280;67164;51.202;0.278;2024-02-23T00:19:45;98431.29;;;22.75;36.89
77975;BME280;67164;51.202;0.278;2024-02-23T00:22:09;98417.12;;;22.58;36.79
77975;BME280;67164;51.202;0.278;2024-02-23T00:24:35;98417.63;;;22.80;36.72
77975;BME280;67164;51.202;0.278;2024-02-23T00:27:01;98412.60;;;22.76;36.75
77975;BME280;67164;51.202;0.278;2024-02-23T00:29:26;98412.64;;;22.78;36.73
77975;BME280;67164;51.202;0.278;2024-02-23T00:31:52;98411.38;;;22.70;36.75
77975;BME280;67164;51.202;0.278;2024-02-23T00:34:18;98410.81;;;22.59;36.86
77975;BME280;67164;51.202;0.278;2024-02-23T00:36:44;98409.14;;;22.84;36.81
77975;BME280;67164;51.202;0.278;2024-02-23T00:39:10;98408.55;;;22.60;36.77
77975;BME280;67164;51.202;0.278;2024-02-23T00:41:35;98409.97;;;22.51;36.88
77975;BME280;67164;51.202;0.278;2024-02-23T00:44:02;98409.75;;;22.75;36.88
77975;BME280;67164;51.202;0.278;2024-02-23T00:46:27;98406.91;;;22.49;36.85
77975;BME280;67164;51.202;0.278;2024-02-23T00:48:53;98407.62;;;22.42;36.88
77975;BME280;67164;51.202;0.278;2024-02-23T00:51:18;98400.86;;;22.39;36.86
77975;BME280;67164;51.202;0.278;2024-02-23T00:53:44;98394.05;;;22.39;36.85
77975;BME280;67164;51.202;0.278;2024-02-23T00:56:10;98384.96;;;22.47;36.76
77975;BME280;67164;51.202;0.278;2024-02-23T00:58:36;98381.60;;;22.41;36.76
77975;BME280;67164;51.202;0.278;2024-02-23T01:01:02;98373.32;;;22.33;36.77
77975;BME280;67164;51.202;0.278;2024-02-23T01:03:27;98373.54;;;22.52;36.87
77975;BME280;67164;51.202;0.278;2024-02-23T01:05:53;98362.54;;;22.23;36.77
77975;BME280;67164;51.202;0.278;2024-02-23T01:08:19;98360.14;;;22.24;36.78
77975;BME280;67164;51.202;0.278;2024-02-23T01:10:45;98360.14;;;22.27;36.75
77975;BME280;67164;51.202;0.278;2024-02-23T01:13:11;98362.16;;;22.30;36.63
77975;BME280;67164;51.202;0.278;2024-02-23T01:15:36;98366.22;;;22.29;36.67
77975;BME280;67164;51.202;0.278;2024-02-23T01:18:03;98364.19;;;22.48;36.69
77975;BME280;67164;51.202;0.278;2024-02-23T01:20:28;98365.47;;;22.14;36.77
77975;BME280;67164;51.202;0.278;2024-02-23T01:22:54;98363.68;;;22.13;36.81
77975;BME280;67164;51.202;0.278;2024-02-23T01:25:19;98363.38;;;22.39;36.64
77975;BME280;67164;51.202;0.278;2024-02-23T01:27:45;98368.95;;;22.33;36.63
77975;BME280;67164;51.202;0.278;2024-02-23T01:30:11;98365.27;;;22.34;36.77
77975;BME280;67164;51.202;0.278;2024-02-23T01:32:37;98360.30;;;22.37;36.77
77975;BME280;67164;51.202;0.278;2024-02-23T01:35:04;98363.24;;;22.07;36.93
77975;BME280;67164;51.202;0.278;2024-02-23T01:37:28;98362.78;;;22.61;36.73
77975;BME280;67164;51.202;0.278;2024-02-23T01:39:55;98361.15;;;22.57;36.80
77975;BME280;67164;51.202;0.278;2024-02-23T01:42:21;98354.22;;;22.37;36.81
77975;BME280;67164;51.202;0.278;2024-02-23T01:44:46;98345.03;;;22.57;36.79
77975;BME280;67164;51.202;0.278;2024-02-23T01:47:12;98346.82;;;22.32;36.83
77975;BME280;67164;51.202;0.278;2024-02-23T01:49:38;98336.44;;;22.14;36.75
77975;BME280;67164;51.202;0.278;2024-02-23T01:52:04;98334.13;;;22.31;36.77
77975;BME280;67164;51.202;0.278;2024-02-23T01:54:29;98326.81;;;22.21;36.96
77975;BME280;67164;51.202;0.278;2024-02-23T01:56:55;98322.64;;;22.12;36.87
77975;BME280;67164;51.202;0.278;2024-02-23T01:59:21;98322.86;;;22.53;36.89
77975;BME280;67164;51.202;0.278;2024-02-23T02:01:46;98319.69;;;22.16;36.93
77975;BME280;67164;51.202;0.278;2024-02-23T02:04:12;98315.63;;;22.28;36.75
77975;BME280;67164;51.202;0.278;2024-02-23T02:06:38;98315.26;;;22.40;36.85
77975;BME280;67164;51.202;0.278;2024-02-23T02:09:04;98313.93;;;22.05;37.04
77975;BME280;67164;51.202;0.278;2024-02-23T02:11:30;98318.31;;;22.32;36.76
77975;BME280;67164;51.202;0.278;2024-02-23T02:13:55;98315.83;;;22.04;36.97
77975;BME280;67164;51.202;0.278;2024-02-23T02:16:21;98307.89;;;22.40;36.76
77975;BME280;67164;51.202;0.278;2024-02-23T02:18:47;98304.33;;;22.37;36.85
77975;BME280;67164;51.202;0.278;2024-02-23T02:21:13;98295.18;;;22.12;36.82
77975;BME280;67164;51.202;0.278;2024-02-23T02:23:38;98285.11;;;22.06;36.89
77975;BME280;67164;51.202;0.278;2024-02-23T02:26:04;98287.56;;;22.18;36.74
77975;BME280;67164;51.202;0.278;2024-02-23T02:28:30;98286.47;;;21.85;36.96
77975;BME280;67164;51.202;0.278;2024-02-23T02:30:56;98289.66;;;22.28;36.81
77975;BME280;67164;51.202;0.278;2024-02-23T02:33:22;98291.37;;;22.02;36.73
77975;BME280;67164;51.202;0.278;2024-02-23T02:35:47;98286.27;;;22.15;36.97
77975;BME280;67164;51.202;0.278;2024-02-23T02:38:13;98274.72;;;22.24;36.81
77975;BME280;67164;51.202;0.278;2024-02-23T02:40:39;98261.21;;;22.12;36.85
77975;BME280;67164;51.202;0.278;2024-02-23T02:43:05;98254.55;;;21.66;36.83
77975;BME280;67164;51.202;0.278;2024-02-23T02:45:31;98249.38;;;22.07;36.95
77975;BME280;67164;51.202;0.278;2024-02-23T02:47:56;98244.60;;;22.03;36.79
77975;BME280;67164;51.202;0.278;2024-02-23T02:50:22;98242.34;;;21.93;36.64
77975;BME280;67164;51.202;0.278;2024-02-23T02:52:48;98237.47;;;21.94;36.80
77975;BME280;67164;51.202;0.278;2024-02-23T02:55:14;98242.53;;;21.87;36.74
77975;BME280;67164;51.202;0.278;2024-02-23T02:57:39;98238.93;;;21.98;36.76
77975;BME280;67164;51.202;0.278;2024-02-23T03:00:09;98242.74;;;21.49;36.81
77975;BME280;67164;51.202;0.278;2024-02-23T03:02:31;98239.87;;;22.27;36.89
77975;BME280;67164;51.202;0.278;2024-02-23T03:04:57;98241.53;;;21.85;36.91
77975;BME280;67164;51.202;0.278;2024-02-23T03:07:23;98240.97;;;21.95;36.93
77975;BME280;67164;51.202;0.278;2024-02-23T03:09:49;98247.48;;;21.64;37.18
77975;BME280;67164;51.202;0.278;2024-02-23T03:12:14;98245.90;;;21.82;37.02
77975;BME280;67164;51.202;0.278;2024-02-23T03:14:40;98244.15;;;21.75;36.89
77975;BME280;67164;51.202;0.278;2024-02-23T03:17:06;98243.66;;;21.74;37.11
77975;BME280;67164;51.202;0.278;2024-02-23T03:19:32;98232.35;;;21.69;37.14
77975;BME280;67164;51.202;0.278;2024-02-23T03:21:57;98241.83;;;21.18;37.28
77975;BME280;67164;51.202;0.278;2024-02-23T03:24:23;98237.88;;;21.51;36.94
77975;BME280;67164;51.202;0.278;2024-02-23T03:26:49;98226.96;;;21.79;36.85
77975;BME280;67164;51.202;0.278;2024-02-23T03:29:15;98223.31;;;21.81;36.87
77975;BME280;67164;51.202;0.278;2024-02-23T03:31:41;98214.29;;;21.55;37.00
77975;BME280;67164;51.202;0.278;2024-02-23T03:34:06;98211.20;;;21.61;36.67
77975;BME280;67164;51.202;0.278;2024-02-23T03:36:32;98203.75;;;21.67;36.81
77975;BME280;67164;51.202;0.278;2024-02-23T03:38:58;98196.51;;;21.77;36.71
77975;BME280;67164;51.202;0.278;2024-02-23T03:41:24;98184.41;;;21.66;36.69
77975;BME280;67164;51.202;0.278;2024-02-23T03:43:50;98186.96;;;21.40;36.97
77975;BME280;67164;51.202;0.278;2024-02-23T03:46:15;98188.58;;;21.73;36.86
77975;BME280;67164;51.202;0.278;2024-02-23T03:48:41;98182.67;;;21.59;36.76
77975;BME280;67164;51.202;0.278;2024-02-23T03:51:08;98180.82;;;21.23;36.65
77975;BME280;67164;51.202;0.278;2024-02-23T03:53:33;98177.86;;;21.38;36.76
77975;BME280;67164;51.202;0.278;2024-02-23T03:55:59;98183.40;;;21.37;36.92
77975;BME280;67164;51.202;0.278;2024-02-23T03:58:24;98181.65;;;21.42;36.71
77975;BME280;67164;51.202;0.278;2024-02-23T04:00:51;98175.40;;;21.31;37.00
77975;BME280;67164;51.202;0.278;2024-02-23T04:03:16;98171.54;;;21.23;36.78
77975;BME280;67164;51.202;0.278;2024-02-23T04:05:42;98165.61;;;21.28;36.59
77975;BME280;67164;51.202;0.278;2024-02-23T04:08:08;98169.01;;;21.56;36.79
77975;BME280;67164;51.202;0.278;2024-02-23T04:10:34;98175.57;;;21.64;36.84
77975;BME280;67164;51.202;0.278;2024-02-23T04:13:00;98174.32;;;21.17;36.99
77975;BME280;67164;51.202;0.278;2024-02-23T04:15:25;98173.20;;;20.92;37.28
77975;BME280;67164;51.202;0.278;2024-02-23T04:17:51;98170.20;;;21.10;37.16
77975;BME280;67164;51.202;0.278;2024-02-23T04:20:17;98165.51;;;20.91;37.10
77975;BME280;67164;51.202;0.278;2024-02-23T04:22:42;98159.66;;;21.24;36.93
77975;BME280;67164;51.202;0.278;2024-02-23T04:25:08;98162.30;;;21.07;37.12
77975;BME280;67164;51.202;0.278;2024-02-23T04:27:34;98166.22;;;21.33;37.26
77975;BME280;67164;51.202;0.278;2024-02-23T04:30:00;98169.38;;;20.79;37.37
77975;BME280;67164;51.202;0.278;2024-02-23T04:32:26;98170.84;;;21.09;37.17
77975;BME280;67164;51.202;0.278;2024-02-23T04:34:51;98169.86;;;21.46;36.94
77975;BME280;67164;51.202;0.278;2024-02-23T04:37:17;98176.04;;;21.25;36.91
77975;BME280;67164;51.202;0.278;2024-02-23T04:39:44;98173.76;;;21.04;37.17
77975;BME280;67164;51.202;0.278;2024-02-23T04:42:09;98177.77;;;21.12;37.04
77975;BME280;67164;51.202;0.278;2024-02-23T04:44:35;98180.12;;;20.93;36.99
77975;BME280;67164;51.202;0.278;2024-02-23T04:47:00;98180.43;;;21.02;37.01
77975;BME280;67164;51.202;0.278;2024-02-23T04:49:26;98179.75;;;20.93;37.10
77975;BME280;67164;51.202;0.278;2024-02-23T04:51:52;98175.33;;;21.33;36.86
77975;BME280;67164;51.202;0.278;2024-02-23T04:54:18;98175.60;;;20.69;37.11
77975;BME280;67164;51.202;0.278;2024-02-23T04:56:44;98171.91;;;20.70;37.08
77975;BME280;67164;51.202;0.278;2024-02-23T04:59:09;98176.16;;;21.08;37.17
77975;BME280;67164;51.202;0.278;2024-02-23T05:01:36;98183.85;;;20.27;37.26
77975;BME280;67164;51.202;0.278;2024-02-23T05:04:01;98189.84;;;20.90;37.28
77975;BME280;67164;51.202;0.278;2024-02-23T05:06:27;98186.74;;;20.93;37.09
77975;BME280;67164;51.202;0.278;2024-02-23T05:08:53;98186.97;;;20.88;37.15
77975;BME280;67164;51.202;0.278;2024-02-23T05:11:18;98196.26;;;20.78;37.22
77975;BME280;67164;51.202;0.278;2024-02-23T05:13:44;98202.67;;;20.93;37.32
77975;BME280;67164;51.202;0.278;2024-02-23T05:16:10;98209.14;;;20.95;37.26
77975;BME280;67164;51.202;0.278;2024-02-23T05:18:36;98213.53;;;21.11;37.26
77975;BME280;67164;51.202;0.278;2024-02-23T05:21:02;98210.40;;;20.40;37.65
77975;BME280;67164;51.202;0.278;2024-02-23T05:23:27;98212.87;;;20.56;37.58
77975;BME280;67164;51.202;0.278;2024-02-23T05:25:53;98208.18;;;20.27;37.77
77975;BME280;67164;51.202;0.278;2024-02-23T05:28:19;98207.46;;;20.34;37.66
77975;BME280;67164;51.202;0.278;2024-02-23T05:30:45;98207.07;;;20.54;37.35
77975;BME280;67164;51.202;0.278;2024-02-23T05:33:11;98207.21;;;20.38;37.89
77975;BME280;67164;51.202;0.278;2024-02-23T05:35:36;98205.27;;;20.69;37.66
77975;BME280;67164;51.202;0.278;2024-02-23T05:38:03;98209.70;;;20.27;37.65
77975;BME280;67164;51.202;0.278;2024-02-23T05:40:28;98208.78;;;20.61;37.33
77975;BME280;67164;51.202;0.278;2024-02-23T05:42:54;98217.99;;;20.28;37.61
77975;BME280;67164;51.202;0.278;2024-02-23T05:45:20;98218.46;;;20.23;37.72
77975;BME280;67164;51.202;0.278;2024-02-23T05:47:45;98220.72;;;20.47;37.43
77975;BME280;67164;51.202;0.278;2024-02-23T05:50:11;98222.70;;;20.46;37.46
77975;BME280;67164;51.202;0.278;2024-02-23T05:52:37;98229.68;;;20.38;37.63
77975;BME280;67164;51.202;0.278;2024-02-23T05:55:03;98228.42;;;20.42;37.33
77975;BME280;67164;51.202;0.278;2024-02-23T05:57:28;98219.80;;;20.43;37.71
77975;BME280;67164;51.202;0.278;2024-02-23T05:59:54;98224.27;;;20.64;37.44
77975;BME280;67164;51.202;0.278;2024-02-23T06:02:20;98230.80;;;20.63;37.60
77975;BME280;67164;51.202;0.278;2024-02-23T06:04:46;98230.71;;;20.31;37.48
77975;BME280;67164;51.202;0.278;2024-02-23T06:07:12;98239.68;;;20.52;37.26
77975;BME280;67164;51.202;0.278;2024-02-23T06:09:37;98240.84;;;20.26;37.45
77975;BME280;67164;51.202;0.278;2024-02-23T06:12:04;98242.32;;;20.09;37.74
77975;BME280;67164;51.202;0.278;2024-02-23T06:14:29;98249.24;;;20.63;37.31
77975;BME280;67164;51.202;0.278;2024-02-23T06:16:55;98249.85;;;20.36;37.33
77975;BME280;67164;51.202;0.278;2024-02-23T06:19:21;98256.88;;;20.35;37.41
77975;BME280;67164;51.202;0.278;2024-02-23T06:21:48;98258.01;;;20.51;37.41
77975;BME280;67164;51.202;0.278;2024-02-23T06:24:12;98261.81;;;20.05;37.86
77975;BME280;67164;51.202;0.278;2024-02-23T06:26:38;98260.65;;;20.13;37.65
77975;BME280;67164;51.202;0.278;2024-02-23T06:29:04;98259.37;;;20.50;37.44
77975;BME280;67164;51.202;0.278;2024-02-23T06:31:30;98259.50;;;20.40;37.26
77975;BME280;67164;51.202;0.278;2024-02-23T06:33:55;98260.61;;;20.49;37.21
77975;BME280;67164;51.202;0.278;2024-02-23T06:36:21;98262.01;;;19.96;37.72
77975;BME280;67164;51.202;0.278;2024-02-23T06:38:47;98259.10;;;20.33;37.40
77975;BME280;67164;51.202;0.278;2024-02-23T06:41:13;98265.83;;;20.23;37.50
77975;BME280;67164;51.202;0.278;2024-02-23T06:43:39;98266.53;;;20.18;37.42
77975;BME280;67164;51.202;0.278;2024-02-23T06:46:06;98272.19;;;20.41;37.36
77975;BME280;67164;51.202;0.278;2024-02-23T06:48:30;98277.39;;;20.33;37.30
77975;BME280;67164;51.202;0.278;2024-02-23T06:50:56;98284.61;;;20.22;37.41
77975;BME280;67164;51.202;0.278;2024-02-23T06:53:22;98284.35;;;20.45;37.47
77975;BME280;67164;51.202;0.278;2024-02-23T06:55:48;98289.07;;;20.05;37.58
77975;BME280;67164;51.202;0.278;2024-02-23T06:58:13;98292.11;;;20.15;37.38
77975;BME280;67164;51.202;0.278;2024-02-23T07:00:39;98296.96;;;20.33;37.23
77975;BME280;67164;51.202;0.278;2024-02-23T07:03:05;98295.31;;;20.38;37.56
77975;BME280;67164;51.202;0.278;2024-02-23T07:05:31;98305.23;;;20.16;37.58
77975;BME280;67164;51.202;0.278;2024-02-23T07:07:57;98310.41;;;20.20;37.67
77975;BME280;67164;51.202;0.278;2024-02-23T07:10:22;98313.81;;;19.69;37.87
77975;BME280;67164;51.202;0.278;2024-02-23T07:12:48;98316.08;;;19.89;37.70
77975;BME280;67164;51.202;0.278;2024-02-23T07:15:14;98320.21;;;19.72;37.88
77975;BME280;67164;51.202;0.278;2024-02-23T07:17:40;98324.27;;;19.98;37.77
77975;BME280;67164;51.202;0.278;2024-02-23T07:20:06;98326.28;;;19.83;37.81
77975;BME280;67164;51.202;0.278;2024-02-23T07:22:31;98327.18;;;20.33;37.62
77975;BME280;67164;51.202;0.278;2024-02-23T07:24:57;98326.09;;;20.60;37.41
77975;BME280;67164;51.202;0.278;2024-02-23T07:27:23;98325.84;;;19.65;37.79
77975;BME280;67164;51.202;0.278;2024-02-23T07:29:49;98325.93;;;20.17;37.47
77975;BME280;67164;51.202;0.278;2024-02-23T07:32:15;98326.19;;;19.88;37.50
77975;BME280;67164;51.202;0.278;2024-02-23T07:34:40;98324.78;;;19.80;37.71
77975;BME280;67164;51.202;0.278;2024-02-23T07:37:06;98324.37;;;19.69;37.66
77975;BME280;67164;51.202;0.278;2024-02-23T07:39:32;98328.10;;;20.28;37.56
77975;BME280;67164;51.202;0.278;2024-02-23T07:41:58;98331.69;;;20.16;37.39
77975;BME280;67164;51.202;0.278;2024-02-23T07:44:24;98328.75;;;20.24;37.71
77975;BME280;67164;51.202;0.278;2024-02-23T07:46:49;98327.74;;;20.01;37.70
77975;BME280;67164;51.202;0.278;2024-02-23T07:49:15;98327.14;;;19.88;37.58
77975;BME280;67164;51.202;0.278;2024-02-23T07:51:41;98328.21;;;20.03;37.74
77975;BME280;67164;51.202;0.278;2024-02-23T07:54:07;98336.85;;;19.25;38.11
77975;BME280;67164;51.202;0.278;2024-02-23T07:56:33;98335.05;;;19.69;37.93
77975;BME280;67164;51.202;0.278;2024-02-23T07:58:58;98333.91;;;19.83;37.81
77975;BME280;67164;51.202;0.278;2024-02-23T08:01:24;98333.21;;;19.65;37.96
77975;BME280;67164;51.202;0.278;2024-02-23T08:03:50;98328.78;;;20.10;37.73
77975;BME280;67164;51.202;0.278;2024-02-23T08:06:16;98329.06;;;19.63;38.06
77975;BME280;67164;51.202;0.278;2024-02-23T08:08:42;98328.82;;;19.90;37.93
77975;BME280;67164;51.202;0.278;2024-02-23T08:11:08;98326.99;;;19.93;37.66
77975;BME280;67164;51.202;0.278;2024-02-23T08:13:33;98324.88;;;20.28;37.67
77975;BME280;67164;51.202;0.278;2024-02-23T08:15:59;98329.95;;;20.11;37.74
77975;BME280;67164;51.202;0.278;2024-02-23T08:18:25;98337.86;;;19.79;37.78
77975;BME280;67164;51.202;0.278;2024-02-23T08:20:51;98338.52;;;19.73;37.82
77975;BME280;67164;51.202;0.278;2024-02-23T08:23:17;98337.46;;;19.58;38.04
77975;BME280;67164;51.202;0.278;2024-02-23T08:25:42;98343.38;;;20.12;37.39
77975;BME280;67164;51.202;0.278;2024-02-23T08:28:08;98340.01;;;19.82;37.43
77975;BME280;67164;51.202;0.278;2024-02-23T08:30:34;98339.25;;;19.45;37.88
77975;BME280;67164;51.202;0.278;2024-02-23T08:33:00;98342.10;;;20.07;37.85
77975;BME280;67164;51.202;0.278;2024-02-23T08:35:26;98344.45;;;20.41;37.28
77975;BME280;67164;51.202;0.278;2024-02-23T08:37:51;98349.88;;;19.83;37.47
77975;BME280;67164;51.202;0.278;2024-02-23T08:40:17;98357.90;;;19.76;37.42
77975;BME280;67164;51.202;0.278;2024-02-23T08:42:43;98360.76;;;20.37;37.20
77975;BME280;67164;51.202;0.278;2024-02-23T08:45:10;98358.53;;;20.25;37.23
77975;BME280;67164;51.202;0.278;2024-02-23T08:47:35;98359.62;;;20.10;37.09
77975;BME280;67164;51.202;0.278;2024-02-23T08:50:01;98363.76;;;20.47;37.23
77975;BME280;67164;51.202;0.278;2024-02-23T08:52:26;98359.99;;;19.81;37.44
77975;BME280;67164;51.202;0.278;2024-02-23T08:54:52;98360.92;;;20.49;37.27
77975;BME280;67164;51.202;0.278;2024-02-23T08:57:18;98364.36;;;20.27;37.31
77975;BME280;67164;51.202;0.278;2024-02-23T08:59:44;98362.49;;;20.26;37.47
77975;BME280;67164;51.202;0.278;2024-02-23T09:02:10;98366.12;;;20.00;37.54
77975;BME280;67164;51.202;0.278;2024-02-23T09:04:35;98366.49;;;19.84;37.53
77975;BME280;67164;51.202;0.278;2024-02-23T09:07:01;98369.40;;;20.39;37.20
77975;BME280;67164;51.202;0.278;2024-02-23T09:09:27;98375.68;;;20.46;37.26
77975;BME280;67164;51.202;0.278;2024-02-23T09:11:53;98373.97;;;20.44;37.34
77975;BME280;67164;51.202;0.278;2024-02-23T09:14:19;98376.55;;;20.60;37.38
77975;BME280;67164;51.202;0.278;2024-02-23T09:16:45;98380.75;;;20.73;37.63
77975;BME280;67164;51.202;0.278;2024-02-23T09:19:10;98381.81;;;20.75;38.28
77975;BME280;67164;51.202;0.278;2024-02-23T09:21:36;98385.64;;;20.60;37.73
77975;BME280;67164;51.202;0.278;2024-02-23T09:24:03;98389.54;;;20.22;38.62
77975;BME280;67164;51.202;0.278;2024-02-23T09:26:28;98383.88;;;20.76;38.61
77975;BME280;67164;51.202;0.278;2024-02-23T09:28:54;98383.19;;;20.22;38.71
77975;BME280;67164;51.202;0.278;2024-02-23T09:31:19;98389.67;;;20.58;38.71
77975;BME280;67164;51.202;0.278;2024-02-23T09:33:45;98396.58;;;20.27;38.82
77975;BME280;67164;51.202;0.278;2024-02-23T09:36:11;98398.26;;;20.22;38.91
77975;BME280;67164;51.202;0.278;2024-02-23T09:38:37;98405.66;;;20.53;38.86
77975;BME280;67164;51.202;0.278;2024-02-23T09:41:04;98410.73;;;20.48;38.96
77975;BME280;67164;51.202;0.278;2024-02-23T09:43:29;98413.85;;;20.21;39.05
77975;BME280;67164;51.202;0.278;2024-02-23T09:45:55;98420.70;;;20.39;39.21
77975;BME280;67164;51.202;0.278;2024-02-23T09:48:21;98420.75;;;20.77;39.19
77975;BME280;67164;51.202;0.278;2024-02-23T09:50:47;98416.31;;;20.25;39.28
77975;BME280;67164;51.202;0.278;2024-02-23T09:53:13;98422.12;;;20.35;39.20
77975;BME280;67164;51.202;0.278;2024-02-23T09:55:37;98422.31;;;20.62;39.17
77975;BME280;67164;51.202;0.278;2024-02-23T09:58:04;98424.12;;;20.64;38.87
77975;BME280;67164;51.202;0.278;2024-02-23T10:00:29;98431.44;;;20.81;38.75
77975;BME280;67164;51.202;0.278;2024-02-23T10:02:55;98432.02;;;21.09;38.73
77975;BME280;67164;51.202;0.278;2024-02-23T10:05:23;98432.37;;;20.90;38.98
77975;BME280;67164;51.202;0.278;2024-02-23T10:07:46;98435.32;;;20.63;38.89
77975;BME280;67164;51.202;0.278;2024-02-23T10:10:12;98435.90;;;20.64;38.82
77975;BME280;67164;51.202;0.278;2024-02-23T10:12:38;98437.41;;;20.83;38.61
77975;BME280;67164;51.202;0.278;2024-02-23T10:15:09;98430.04;;;20.72;38.75
77975;BME280;67164;51.202;0.278;2024-02-23T10:17:29;98434.90;;;20.81;38.69
77975;BME280;67164;51.202;0.278;2024-02-23T10:19:55;98429.69;;;20.82;38.73
77975;BME280;67164;51.202;0.278;2024-02-23T10:22:22;98426.39;;;20.71;38.85
77975;BME280;67164;51.202;0.278;2024-02-23T10:24:47;98423.72;;;20.72;38.91
77975;BME280;67164;51.202;0.278;2024-02-23T10:27:13;98421.91;;;20.74;38.98
77975;BME280;67164;51.202;0.278;2024-02-23T10:29:38;98425.36;;;20.78;38.94
77975;BME280;67164;51.202;0.278;2024-02-23T10:32:06;98431.34;;;20.87;38.87
77975;BME280;67164;51.202;0.278;2024-02-23T10:34:31;98434.86;;;21.00;38.74
77975;BME280;67164;51.202;0.278;2024-02-23T10:36:56;98429.12;;;21.05;38.69
77975;BME280;67164;51.202;0.278;2024-02-23T10:39:29;98433.50;;;20.96;38.84
77975;BME280;67164;51.202;0.278;2024-02-23T10:41:53;98439.31;;;20.95;38.87
77975;BME280;67164;51.202;0.278;2024-02-23T10:44:15;98446.29;;;21.14;38.73
77975;BME280;67164;51.202;0.278;2024-02-23T10:46:39;98450.94;;;21.06;38.79
77975;BME280;67164;51.202;0.278;2024-02-23T10:49:05;98454.46;;;20.95;38.67
77975;BME280;67164;51.202;0.278;2024-02-23T10:51:31;98454.70;;;21.23;38.60
77975;BME280;67164;51.202;0.278;2024-02-23T10:53:57;98459.51;;;21.20;38.67
77975;BME280;67164;51.202;0.278;2024-02-23T10:56:22;98460.86;;;21.32;38.54
77975;BME280;67164;51.202;0.278;2024-02-23T10:58:48;98458.01;;;21.04;38.55
77975;BME280;67164;51.202;0.278;2024-02-23T11:01:14;98452.74;;;21.21;38.68
77975;BME280;67164;51.202;0.278;2024-02-23T11:03:42;98448.54;;;21.31;38.56
77975;BME280;67164;51.202;0.278;2024-02-23T11:06:07;98445.62;;;20.92;38.52
77975;BME280;67164;51.202;0.278;2024-02-23T11:08:33;98446.30;;;21.19;38.54
77975;BME280;67164;51.202;0.278;2024-02-23T11:10:57;98449.23;;;21.49;38.46
77975;BME280;67164;51.202;0.278;2024-02-23T11:13:31;98451.76;;;21.22;38.52
77975;BME280;67164;51.202;0.278;2024-02-23T11:15:49;98453.13;;;21.31;38.43
77975;BME280;67164;51.202;0.278;2024-02-23T11:18:23;98452.74;;;21.26;38.50
77975;BME280;67164;51.202;0.278;2024-02-23T11:20:40;98456.85;;;21.23;38.59
77975;BME280;67164;51.202;0.278;2024-02-23T11:23:14;98450.30;;;21.28;38.56
77975;BME280;67164;51.202;0.278;2024-02-23T11:25:32;98446.88;;;21.62;38.47
77975;BME280;67164;51.202;0.278;2024-02-23T11:27:57;98445.48;;;21.39;38.45
77975;BME280;67164;51.202;0.278;2024-02-23T11:30:26;98442.53;;;21.11;38.49
77975;BME280;67164;51.202;0.278;2024-02-23T11:32:50;98441.35;;;21.41;38.46
77975;BME280;67164;51.202;0.278;2024-02-23T11:35:16;98442.30;;;21.38;38.47
77975;BME280;67164;51.202;0.278;2024-02-23T11:37:47;98445.40;;;21.19;38.44
77975;BME280;67164;51.202;0.278;2024-02-23T11:40:07;98446.07;;;21.32;38.34
77975;BME280;67164;51.202;0.278;2024-02-23T11:42:33;98446.39;;;21.38;38.25
77975;BME280;67164;51.202;0.278;2024-02-23T11:44:58;98452.62;;;21.78;37.99
77975;BME280;67164;51.202;0.278;2024-02-23T11:47:24;98448.06;;;21.69;38.08
77975;BME280;67164;51.202;0.278;2024-02-23T11:49:49;98447.80;;;21.47;38.07
77975;BME280;67164;51.202;0.278;2024-02-23T11:52:15;98451.34;;;21.56;38.33
77975;BME280;67164;51.202;0.278;2024-02-23T11:54:41;98452.86;;;21.48;38.41
77975;BME280;67164;51.202;0.278;2024-02-23T11:57:07;98452.84;;;21.29;38.44
77975;BME280;67164;51.202;0.278;2024-02-23T11:59:33;98451.69;;;21.46;38.56
77975;BME280;67164;51.202;0.278;2024-02-23T12:01:58;98455.13;;;21.65;38.34
77975;BME280;67164;51.202;0.278;2024-02-23T12:04:27;98456.29;;;21.73;38.25
77975;BME280;67164;51.202;0.278;2024-02-23T12:06:50;98453.65;;;21.67;38.33
77975;BME280;67164;51.202;0.278;2024-02-23T12:09:16;98457.08;;;21.67;38.33
77975;BME280;67164;51.202;0.278;2024-02-23T12:11:42;98453.42;;;21.73;38.29
77975;BME280;67164;51.202;0.278;2024-02-23T12:14:07;98454.09;;;21.67;38.13
77975;BME280;67164;51.202;0.278;2024-02-23T12:16:33;98452.12;;;21.50;38.35
77975;BME280;67164;51.202;0.278;2024-02-23T12:19:01;98450.42;;;21.77;38.39
77975;BME280;67164;51.202;0.278;2024-02-23T12:21:25;98449.49;;;21.67;38.24
77975;BME280;67164;51.202;0.278;2024-02-23T12:23:51;98450.57;;;21.72;38.14
77975;BME280;67164;51.202;0.278;2024-02-23T12:26:17;98446.38;;;21.64;38.28
77975;BME280;67164;51.202;0.278;2024-02-23T12:28:43;98446.85;;;21.88;38.31
77975;BME280;67164;51.202;0.278;2024-02-23T12:31:08;98446.35;;;21.64;38.37
77975;BME280;67164;51.202;0.278;2024-02-23T12:33:34;98450.29;;;22.24;38.25
77975;BME280;67164;51.202;0.278;2024-02-23T12:35:59;98456.52;;;22.02;38.23
77975;BME280;67164;51.202;0.278;2024-02-23T12:38:25;98456.81;;;21.84;38.18
77975;BME280;67164;51.202;0.278;2024-02-23T12:40:51;98453.30;;;22.12;38.16
77975;BME280;67164;51.202;0.278;2024-02-23T12:43:16;98447.14;;;21.76;38.20
77975;BME280;67164;51.202;0.278;2024-02-23T12:45:42;98444.95;;;21.75;38.35
77975;BME280;67164;51.202;0.278;2024-02-23T12:48:08;98444.67;;;21.65;38.20
77975;BME280;67164;51.202;0.278;2024-02-23T12:50:34;98443.54;;;21.86;38.26